Time;durP1;ratioP1;P1;durP2;ratioP2;P2;SDS_P1;SDS_P2;PMS_P1;PMS_P2;Temp;Humidity;BMP_temperature;BMP_pressure;BME280_temperature;BME280_humidity;BME280_pressure;Samples;Min_cycle;Max_cycle;Signal;HPM_P1;HPM_P2
2021/03/31 00:01:59;;;;;;;41.17;27.88;;;;;;;19.35;40.05;101906.75;4993236;28;20153;-82
2021/03/31 00:04:25;;;;;;;36.95;27.40;;;;;;;19.35;40.16;101915.06;4992480;28;20386;-79
2021/03/31 00:06:50;;;;;;;33.15;26.27;;;;;;;19.37;40.26;101907.19;4993293;28;20030;-81
2021/03/31 00:09:16;;;;;;;33.40;24.30;;;;;;;19.41;40.28;101902.56;4993645;28;20049;-79
2021/03/31 00:11:42;;;;;;;32.53;24.30;;;;;;;19.47;39.90;101913.44;4993561;28;20366;-79
2021/03/31 00:14:08;;;;;;;31.92;23.10;;;;;;;19.32;40.14;101906.59;4992192;28;20026;-86
2021/03/31 00:16:34;;;;;;;36.58;22.83;;;;;;;19.24;40.37;101908.31;4993554;28;20105;-80
2021/03/31 00:18:59;;;;;;;29.63;23.08;;;;;;;19.24;40.18;101905.56;4993481;28;20113;-79
2021/03/31 00:21:25;;;;;;;28.40;23.08;;;;;;;19.23;40.27;101898.41;4993420;28;20030;-85
2021/03/31 00:23:52;;;;;;;35.58;23.95;;;;;;;19.24;40.23;101900.00;4993434;28;20030;-79
2021/03/31 00:26:19;;;;;;;30.08;23.42;;;;;;;19.24;40.18;101901.97;4993730;28;20054;-79
2021/03/31 00:28:44;;;;;;;34.50;24.48;;;;;;;19.20;40.50;101896.31;4992592;28;20026;-79
2021/03/31 00:31:11;;;;;;;32.00;23.80;;;;;;;19.19;40.95;101903.00;4992111;28;20045;-80
2021/03/31 00:33:37;;;;;;;30.50;23.55;;;;;;;19.21;40.93;101897.94;4993247;28;20048;-80
2021/03/31 00:36:02;;;;;;;33.95;25.77;;;;;;;19.36;40.69;101896.47;4993247;28;20154;-79
2021/03/31 00:38:28;;;;;;;30.52;22.30;;;;;;;19.31;41.05;101891.94;4993145;28;20026;-79
2021/03/31 00:40:55;;;;;;;33.97;23.30;;;;;;;19.26;41.39;101889.38;4993050;28;20033;-78
2021/03/31 00:43:22;;;;;;;30.08;23.73;;;;;;;19.19;41.87;101889.13;4992941;28;20042;-79
2021/03/31 00:45:48;;;;;;;36.33;23.70;;;;;;;19.33;41.81;101895.16;4993080;28;20085;-79
2021/03/31 00:48:15;;;;;;;33.15;22.67;;;;;;;19.34;41.96;101888.47;4993151;28;20026;-79
2021/03/31 00:50:43;;;;;;;32.90;24.13;;;;;;;19.34;42.21;101890.44;4993051;28;20038;-79
2021/03/31 00:53:09;;;;;;;31.90;24.83;;;;;;;19.23;42.41;101884.53;4992679;28;20424;-79
2021/03/31 00:55:35;;;;;;;33.13;24.00;;;;;;;19.35;42.44;101881.78;4993062;28;20034;-84
2021/03/31 00:58:01;;;;;;;31.83;24.27;;;;;;;19.22;42.65;101884.91;4992894;28;20057;-79
2021/03/31 01:00:28;;;;;;;28.95;22.55;;;;;;;19.05;43.34;101883.13;4993001;28;20568;-79
2021/03/31 01:02:54;;;;;;;31.67;22.63;;;;;;;19.35;42.58;101881.78;4992965;28;20053;-78
2021/03/31 01:05:25;;;;;;;30.27;22.58;;;;;;;19.33;42.28;101877.72;4992767;28;20031;-81
2021/03/31 01:07:51;;;;;;;26.90;20.70;;;;;;;19.17;42.79;101874.03;4992901;28;20038;-85
2021/03/31 01:10:21;;;;;;;31.45;22.52;;;;;;;19.22;42.78;101871.84;4992772;28;20524;-83
2021/03/31 01:13:11;;;;;;;34.15;22.15;;;;;;;19.18;43.03;101859.00;4992795;28;20395;-79
2021/03/31 01:15:40;;;;;;;29.98;20.90;;;;;;;19.01;43.38;101860.84;4992826;28;20488;-79
2021/03/31 01:18:15;;;;;;;29.52;21.10;;;;;;;18.57;44.52;101867.94;4992651;28;20030;-79
2021/03/31 01:20:53;;;;;;;27.27;20.67;;;;;;;18.94;43.50;101865.31;4992774;28;20023;-78
2021/03/31 01:23:42;;;;;;;30.02;21.00;;;;;;;18.92;43.59;101862.91;4992904;28;20113;-84
2021/03/31 01:26:13;;;;;;;25.80;21.30;;;;;;;19.02;43.29;101861.66;4995373;28;20023;-79
2021/03/31 01:28:51;;;;;;;27.33;20.45;;;;;;;18.99;43.29;101857.63;4996677;28;20268;-85
2021/03/31 01:31:38;;;;;;;26.33;19.98;;;;;;;18.74;43.94;101855.91;4996641;28;20054;-78
2021/03/31 01:34:22;;;;;;;28.83;21.73;;;;;;;18.88;43.53;101850.06;4996592;28;20032;-78
2021/03/31 01:36:51;;;;;;;27.23;20.10;;;;;;;19.01;43.07;101852.53;4996437;28;20022;-78
2021/03/31 01:39:19;;;;;;;31.13;22.58;;;;;;;19.05;42.90;101852.66;4996077;28;20499;-79
2021/03/31 01:41:46;;;;;;;25.52;20.00;;;;;;;19.37;42.11;101851.78;4996089;28;20407;-78
2021/03/31 01:44:15;;;;;;;26.73;20.60;;;;;;;19.42;42.04;101850.72;4996374;28;20100;-79
2021/03/31 01:46:44;;;;;;;28.55;20.27;;;;;;;19.20;42.48;101846.44;4996603;28;20042;-78
2021/03/31 01:49:10;;;;;;;19.98;17.30;;;;;;;19.05;43.05;101841.59;4996218;28;20030;-79
2021/03/31 01:51:38;;;;;;;22.45;17.85;;;;;;;18.88;43.50;101839.00;4996191;28;20030;-79
2021/03/31 01:54:06;;;;;;;25.73;17.23;;;;;;;18.83;43.69;101832.53;4996167;28;20080;-82
2021/03/31 01:56:33;;;;;;;22.85;17.95;;;;;;;18.98;43.22;101833.84;4996094;28;20026;-79
2021/03/31 01:59:00;;;;;;;22.20;16.35;;;;;;;19.17;42.77;101827.72;4995899;28;20023;-79
2021/03/31 02:01:28;;;;;;;20.10;15.23;;;;;;;19.09;43.14;101828.66;4996038;28;20076;-79
2021/03/31 02:03:56;;;;;;;20.20;14.20;;;;;;;19.08;43.21;101827.03;4995587;28;20026;-79
2021/03/31 02:06:26;;;;;;;18.38;14.50;;;;;;;19.03;43.57;101830.81;4995913;28;20436;-78
2021/03/31 02:08:52;;;;;;;18.55;13.20;;;;;;;19.10;43.14;101825.53;4995804;28;20022;-78
2021/03/31 02:11:19;;;;;;;17.80;12.85;;;;;;;18.99;43.58;101818.03;4995781;28;20027;-79
2021/03/31 02:13:47;;;;;;;15.90;13.05;;;;;;;19.05;43.20;101819.44;4995790;28;20038;-78
2021/03/31 02:16:14;;;;;;;19.67;12.15;;;;;;;19.14;43.22;101809.03;4995760;28;20026;-79
2021/03/31 02:18:40;;;;;;;17.48;11.52;;;;;;;19.01;43.25;101813.75;4995676;28;20480;-83
2021/03/31 02:21:07;;;;;;;16.70;13.02;;;;;;;19.04;43.23;101809.47;4995659;28;20048;-78
2021/03/31 02:23:35;;;;;;;15.50;12.23;;;;;;;19.04;43.06;101812.25;4995604;28;20026;-79
2021/03/31 02:26:02;;;;;;;18.88;13.48;;;;;;;18.99;43.14;101813.28;4995270;28;20465;-78
2021/03/31 02:28:29;;;;;;;18.15;12.85;;;;;;;19.05;42.94;101811.13;4995480;28;20061;-80
2021/03/31 02:30:55;;;;;;;16.67;11.95;;;;;;;19.09;42.98;101810.06;4995481;28;20133;-78
2021/03/31 02:33:22;;;;;;;15.73;11.25;;;;;;;19.16;42.68;101800.38;4995327;28;20117;-79
2021/03/31 02:35:48;;;;;;;16.10;11.15;;;;;;;19.11;42.71;101804.97;4995090;28;20037;-79
2021/03/31 02:38:16;;;;;;;14.15;10.18;;;;;;;19.19;42.50;101799.69;4994386;28;20026;-78
2021/03/31 02:40:48;;;;;;;15.32;9.57;;;;;;;19.36;42.13;101796.69;4995594;28;20036;-79
2021/03/31 02:43:15;;;;;;;13.48;10.40;;;;;;;19.27;42.16;101795.97;4995124;28;20050;-78
2021/03/31 02:45:44;;;;;;;12.80;9.90;;;;;;;19.59;41.45;101805.38;4994817;28;20538;-79
2021/03/31 02:48:14;;;;;;;12.02;10.00;;;;;;;19.18;42.44;101804.41;4995095;28;20018;-79
2021/03/31 02:50:40;;;;;;;12.88;8.63;;;;;;;19.05;42.58;101805.56;4994765;28;20037;-80
2021/03/31 02:53:06;;;;;;;10.45;8.38;;;;;;;19.01;42.98;101804.63;4995044;28;20397;-79
2021/03/31 02:55:32;;;;;;;13.18;8.68;;;;;;;19.07;42.84;101803.25;4995016;28;20088;-79
2021/03/31 02:58:00;;;;;;;16.73;9.27;;;;;;;19.04;42.88;101801.16;4994959;28;20065;-78
2021/03/31 03:00:26;;;;;;;12.85;9.05;;;;;;;19.14;42.61;101809.03;4994974;28;20370;-79
2021/03/31 03:02:52;;;;;;;13.85;9.38;;;;;;;19.18;42.47;101803.59;4994869;28;20084;-78
2021/03/31 03:05:19;;;;;;;12.43;9.95;;;;;;;19.24;42.71;101808.56;4994921;28;20026;-79
2021/03/31 03:07:46;;;;;;;20.42;10.30;;;;;;;19.27;42.02;101802.34;4994741;28;20084;-79
2021/03/31 03:10:12;;;;;;;12.50;9.45;;;;;;;19.34;41.65;101805.34;4994734;28;20089;-78
2021/03/31 03:12:46;;;;;;;16.27;9.35;;;;;;;19.38;41.49;101805.47;4994468;28;20113;-80
2021/03/31 03:15:14;;;;;;;14.73;10.00;;;;;;;19.39;41.42;101815.38;4994540;28;20066;-79
2021/03/31 03:17:41;;;;;;;14.32;9.57;;;;;;;19.13;42.12;101808.22;4994653;28;20034;-78
2021/03/31 03:20:09;;;;;;;18.08;9.60;;;;;;;19.06;42.00;101809.97;4994445;28;20441;-79
2021/03/31 03:22:37;;;;;;;15.07;9.80;;;;;;;19.10;42.11;101802.56;4994620;28;20476;-79
2021/03/31 03:25:03;;;;;;;15.55;10.20;;;;;;;19.04;42.08;101813.09;4994408;28;20460;-79
2021/03/31 03:27:30;;;;;;;14.32;10.05;;;;;;;19.06;41.92;101812.72;4994399;28;20061;-78
2021/03/31 03:29:56;;;;;;;12.60;8.52;;;;;;;19.03;42.30;101805.09;4994379;28;20030;-78
2021/03/31 03:32:22;;;;;;;17.25;10.32;;;;;;;19.04;41.95;101809.47;4994320;28;20034;-79
2021/03/31 03:34:50;;;;;;;13.63;11.05;;;;;;;18.96;41.94;101810.38;4994378;28;20030;-79
2021/03/31 03:37:19;;;;;;;15.52;10.60;;;;;;;18.93;41.87;101809.13;4991700;28;20022;-80
2021/03/31 03:39:44;;;;;;;14.60;10.82;;;;;;;18.97;41.96;101803.72;4993285;28;20027;-79
2021/03/31 03:42:10;;;;;;;13.23;10.55;;;;;;;18.95;41.55;101808.78;4993863;28;20050;-80
2021/03/31 03:44:36;;;;;;;15.52;11.50;;;;;;;18.93;41.55;101800.81;4994068;28;20388;-79
2021/03/31 03:47:02;;;;;;;15.18;11.70;;;;;;;18.90;41.50;101793.22;4992736;28;20488;-79
2021/03/31 03:49:28;;;;;;;14.20;11.38;;;;;;;18.91;41.39;101800.38;4993761;28;20385;-79
2021/03/31 03:51:54;;;;;;;15.38;12.45;;;;;;;18.88;41.43;101795.50;4994021;28;20026;-84
2021/03/31 03:54:19;;;;;;;15.40;11.23;;;;;;;18.87;41.58;101795.84;4994003;28;20409;-79
2021/03/31 03:56:47;;;;;;;15.55;10.50;;;;;;;18.85;41.46;101787.88;4993919;28;20026;-78
2021/03/31 03:59:28;;;;;;;14.43;9.95;;;;;;;18.88;41.59;101781.66;4993610;28;20050;-78
2021/03/31 04:01:54;;;;;;;14.90;9.48;;;;;;;18.95;41.40;101800.47;4993606;28;20030;-79
2021/03/31 04:04:20;;;;;;;11.95;8.25;;;;;;;18.93;41.64;101800.00;4993666;28;20028;-78
2021/03/31 04:06:46;;;;;;;10.35;7.90;;;;;;;18.91;41.70;101805.09;4993594;28;20026;-85
2021/03/31 04:09:12;;;;;;;13.95;8.65;;;;;;;18.93;41.67;101802.78;4993821;28;20022;-78
2021/03/31 04:11:41;;;;;;;13.40;10.52;;;;;;;18.79;42.01;101814.97;4992505;28;20034;-79
2021/03/31 04:14:08;;;;;;;14.32;9.95;;;;;;;18.80;41.61;101804.72;4993332;28;20529;-78
2021/03/31 04:16:35;;;;;;;14.52;9.98;;;;;;;18.70;41.89;101814.28;4993372;28;20465;-78
2021/03/31 04:19:03;;;;;;;12.63;9.85;;;;;;;18.70;41.81;101811.50;4993245;28;20034;-82
2021/03/31 04:21:32;;;;;;;20.25;11.00;;;;;;;18.69;41.95;101818.19;4993484;28;20034;-78
2021/03/31 04:23:58;;;;;;;13.35;10.30;;;;;;;18.72;41.87;101817.50;4993464;28;20242;-84
2021/03/31 04:26:25;;;;;;;25.45;12.18;;;;;;;18.73;41.65;101815.53;4993346;28;20031;-79
2021/03/31 04:28:52;;;;;;;16.80;10.63;;;;;;;18.67;41.63;101809.44;4993403;28;20117;-80
2021/03/31 04:31:21;;;;;;;15.20;11.95;;;;;;;18.61;41.66;101809.97;4993372;28;20062;-85
2021/03/31 04:33:47;;;;;;;13.93;10.52;;;;;;;18.63;41.72;101807.66;4993282;28;20037;-79
2021/03/31 04:36:13;;;;;;;12.75;9.60;;;;;;;18.68;41.59;101807.47;4992862;28;20026;-84
2021/03/31 04:38:49;;;;;;;20.35;10.68;;;;;;;18.70;41.76;101811.50;4993235;28;20022;-79
2021/03/31 04:41:16;;;;;;;23.50;12.80;;;;;;;18.49;42.31;101805.97;4992995;28;20477;-84
2021/03/31 04:43:42;;;;;;;17.40;12.27;;;;;;;18.72;41.46;101802.84;4993428;28;20134;-80
2021/03/31 04:46:10;;;;;;;19.42;11.30;;;;;;;18.75;41.32;101799.41;4993187;28;20563;-79
2021/03/31 04:48:39;;;;;;;17.58;11.13;;;;;;;18.76;41.54;101792.72;4993016;28;20026;-78
2021/03/31 04:51:06;;;;;;;31.77;13.70;;;;;;;18.68;41.48;101793.63;4993098;28;20034;-84
2021/03/31 04:53:32;;;;;;;18.85;12.73;;;;;;;18.66;41.38;101793.13;4993133;28;20109;-79
2021/03/31 04:55:58;;;;;;;18.17;12.15;;;;;;;18.63;41.68;101789.06;4993114;28;20114;-79
2021/03/31 04:58:24;;;;;;;16.90;11.05;;;;;;;18.67;41.30;101784.50;4991443;28;20388;-78
2021/03/31 05:00:49;;;;;;;16.08;11.63;;;;;;;18.66;41.39;101788.41;4994886;28;20030;-79
2021/03/31 05:03:15;;;;;;;22.00;12.32;;;;;;;18.69;41.63;101787.75;4997144;28;20041;-86
2021/03/31 05:05:41;;;;;;;15.35;10.65;;;;;;;18.76;41.35;101787.19;4996956;28;20038;-78
2021/03/31 05:08:07;;;;;;;22.55;12.38;;;;;;;18.56;41.65;101783.28;4996923;28;20058;-79
2021/03/31 05:10:34;;;;;;;17.98;12.63;;;;;;;18.66;41.42;101782.88;4997003;28;20033;-83
2021/03/31 05:12:59;;;;;;;16.52;12.07;;;;;;;18.76;41.28;101774.16;4996863;28;20476;-78
2021/03/31 05:15:25;;;;;;;23.75;12.10;;;;;;;18.68;41.69;101777.81;4996870;28;20026;-78
2021/03/31 05:17:50;;;;;;;18.25;11.18;;;;;;;18.64;41.77;101781.56;4996926;28;20026;-79
2021/03/31 05:20:16;;;;;;;22.13;13.13;;;;;;;18.75;41.51;101786.38;4996695;28;20038;-79
2021/03/31 05:22:42;;;;;;;16.48;10.40;;;;;;;18.77;41.52;101788.81;4996319;28;20023;-79
2021/03/31 05:25:09;;;;;;;15.23;10.00;;;;;;;18.69;41.69;101782.22;4996717;28;20098;-78
2021/03/31 05:27:35;;;;;;;15.88;10.85;;;;;;;18.77;41.26;101786.84;4996550;28;20073;-78
2021/03/31 05:30:11;;;;;;;16.83;11.32;;;;;;;18.66;41.58;101787.59;4996703;28;20037;-84
2021/03/31 05:32:37;;;;;;;21.73;12.32;;;;;;;18.61;41.43;101785.03;4996573;28;20022;-79
2021/03/31 05:35:04;;;;;;;14.88;11.15;;;;;;;18.56;41.45;101791.59;4996495;28;20026;-79
2021/03/31 05:37:30;;;;;;;14.93;11.50;;;;;;;18.41;41.58;101790.28;4996397;28;20025;-79
2021/03/31 05:39:55;;;;;;;16.42;11.63;;;;;;;18.46;41.58;101792.84;4995367;28;20030;-79
2021/03/31 05:42:21;;;;;;;18.88;12.25;;;;;;;18.46;41.39;101792.03;4994954;28;20129;-80
2021/03/31 05:44:47;;;;;;;14.88;10.80;;;;;;;18.47;41.41;101799.19;4996302;28;20526;-84
2021/03/31 05:47:36;;;;;;;20.13;12.00;;;;;;;18.56;41.11;101794.38;4996344;28;20022;-78
2021/03/31 05:50:07;;;;;;;22.63;11.38;;;;;;;18.59;41.19;101796.47;4996287;28;20030;-79
2021/03/31 05:52:33;;;;;;;15.15;11.90;;;;;;;18.66;40.68;101788.41;4996240;28;20025;-79
2021/03/31 05:55:02;;;;;;;14.57;10.65;;;;;;;18.45;41.40;101790.41;4996116;28;20026;-85
2021/03/31 05:57:31;;;;;;;18.10;10.93;;;;;;;18.71;41.07;101787.41;4994912;28;20037;-78
2021/03/31 05:59:57;;;;;;;15.93;9.98;;;;;;;18.85;40.77;101783.16;4995976;28;20062;-78
2021/03/31 06:02:24;;;;;;;22.17;11.27;;;;;;;18.88;40.64;101789.97;4996003;28;20034;-79
2021/03/31 06:04:51;;;;;;;20.05;11.18;;;;;;;18.64;41.35;101785.16;4996102;28;20026;-78
2021/03/31 06:07:17;;;;;;;14.80;10.18;;;;;;;18.76;41.31;101785.22;4995871;28;20109;-81
2021/03/31 06:10:10;;;;;;;19.67;10.20;;;;;;;18.93;41.05;101783.41;4995517;28;20118;-79
2021/03/31 06:12:38;;;;;;;15.63;10.50;;;;;;;19.01;40.60;101782.47;4995517;28;20027;-79
2021/03/31 06:15:36;;;;;;;15.60;11.20;;;;;;;18.90;40.86;101779.38;4995822;28;20485;-76
2021/03/31 06:18:14;;;;;;;19.27;12.45;;;;;;;18.82;40.97;101781.09;4994932;28;20452;-78
2021/03/31 06:20:54;;;;;;;15.75;11.40;;;;;;;18.95;40.51;101784.66;4995700;28;20077;-78
2021/03/31 06:23:40;;;;;;;15.95;10.43;;;;;;;18.95;40.85;101781.09;4995709;28;20030;-78
2021/03/31 06:26:26;;;;;;;15.88;10.20;;;;;;;18.76;41.52;101776.91;4995560;28;20058;-78
2021/03/31 06:29:10;;;;;;;19.80;10.35;;;;;;;18.70;41.69;101761.69;4994835;28;20539;-79
2021/03/31 06:31:38;;;;;;;17.35;10.13;;;;;;;18.82;41.53;101781.09;4995088;28;20030;-80
2021/03/31 06:34:07;;;;;;;19.60;10.40;;;;;;;18.73;41.85;101772.03;4995077;28;20031;-77
2021/03/31 06:36:39;;;;;;;18.30;11.18;;;;;;;18.82;41.82;101775.53;4995422;28;20030;-77
2021/03/31 06:39:19;;;;;;;17.27;11.25;;;;;;;18.84;41.87;101781.53;4995322;28;20121;-77
2021/03/31 06:41:56;;;;;;;22.52;12.55;;;;;;;18.93;41.79;101786.16;4995176;28;20046;-78
2021/03/31 06:45:01;;;;;;;21.80;10.63;;;;;;;19.02;41.78;101784.09;4995315;28;20034;-78
2021/03/31 06:47:46;;;;;;;41.90;14.63;;;;;;;19.02;41.87;101775.78;4995212;28;20035;-85
2021/03/31 06:50:14;;;;;;;18.77;11.48;;;;;;;19.06;41.69;101779.50;4995227;28;20042;-79
2021/03/31 06:53:01;;;;;;;22.67;12.63;;;;;;;19.22;41.93;101779.59;4995249;28;20030;-79
2021/03/31 06:55:28;;;;;;;18.45;11.05;;;;;;;19.31;41.65;101777.53;4994763;28;20050;-81
2021/03/31 06:57:57;;;;;;;16.42;10.68;;;;;;;19.46;41.85;101778.78;4994602;28;20026;-79
2021/03/31 07:00:28;;;;;;;22.02;10.73;;;;;;;19.46;41.73;101789.88;4994741;28;20093;-79
2021/03/31 07:02:56;;;;;;;18.40;10.10;;;;;;;19.56;42.01;101786.59;4994685;28;20030;-81
2021/03/31 07:05:22;;;;;;;19.35;9.93;;;;;;;19.87;41.52;101791.53;4994426;28;20125;-81
2021/03/31 07:07:48;;;;;;;20.02;10.50;;;;;;;20.05;41.38;101781.00;4994234;28;20054;-78
2021/03/31 07:10:19;;;;;;;14.27;8.05;;;;;;;20.06;41.61;101782.59;4993363;28;20515;-81
2021/03/31 07:12:50;;;;;;;14.60;7.88;;;;;;;20.24;41.38;101778.34;4993850;28;20037;-83
2021/03/31 07:15:19;;;;;;;11.80;7.95;;;;;;;20.14;41.91;101778.88;4992761;28;20392;-78
2021/03/31 07:17:48;;;;;;;14.07;7.68;;;;;;;20.33;41.83;101781.81;4992793;28;20031;-84
2021/03/31 07:20:14;;;;;;;18.65;9.27;;;;;;;20.38;41.78;101784.31;4992561;28;20030;-78
2021/03/31 07:22:40;;;;;;;13.18;8.07;;;;;;;20.55;41.60;101776.84;4991261;28;20053;-85
2021/03/31 07:25:08;;;;;;;16.25;8.55;;;;;;;20.54;41.84;101791.88;4991561;28;20068;-79
2021/03/31 07:27:35;;;;;;;17.15;8.52;;;;;;;20.77;41.49;101801.25;4992511;28;20019;-78
2021/03/31 07:30:07;;;;;;;27.60;9.32;;;;;;;20.96;41.10;101792.22;4993329;28;20098;-83
2021/03/31 07:32:37;;;;;;;18.33;7.93;;;;;;;20.87;41.57;101802.69;4994400;28;20053;-78
2021/03/31 07:35:04;;;;;;;13.55;7.85;;;;;;;21.03;41.31;101801.53;4977382;28;20030;-79
2021/03/31 07:37:31;;;;;;;17.60;8.10;;;;;;;21.00;41.49;101793.09;4994294;28;20029;-79
2021/03/31 07:40:03;;;;;;;13.68;7.72;;;;;;;21.04;41.68;101800.38;4994159;28;20027;-79
2021/03/31 07:42:29;;;;;;;17.80;7.25;;;;;;;21.11;41.32;101796.97;4995066;28;20061;-84
2021/03/31 07:44:59;;;;;;;18.73;7.93;;;;;;;21.20;41.40;101799.56;4992774;28;20030;-80
2021/03/31 07:47:26;;;;;;;16.83;7.65;;;;;;;21.09;41.79;101804.84;4992509;28;20026;-80
2021/03/31 07:49:53;;;;;;;18.77;8.95;;;;;;;21.25;41.53;101808.44;4992702;28;20042;-81
2021/03/31 07:52:19;;;;;;;21.08;7.90;;;;;;;21.31;41.57;101808.97;4993973;28;20022;-81
2021/03/31 07:54:44;;;;;;;17.17;8.73;;;;;;;21.42;41.45;101810.06;4993896;28;20026;-82
2021/03/31 07:57:31;;;;;;;20.00;8.48;;;;;;;21.50;41.50;101805.47;4993893;28;20080;-81
2021/03/31 07:59:56;;;;;;;17.33;8.05;;;;;;;21.60;41.33;101808.47;4993842;28;20389;-81
2021/03/31 08:02:24;;;;;;;16.52;7.88;;;;;;;21.64;41.44;101802.22;4993759;28;20038;-81
2021/03/31 08:04:49;;;;;;;9.15;6.20;;;;;;;22.00;40.70;101812.97;4993771;28;20026;-85
2021/03/31 08:07:29;;;;;;;12.05;6.75;;;;;;;21.71;41.68;101805.16;4993195;28;20018;-82
2021/03/31 08:10:32;;;;;;;10.00;5.03;;;;;;;21.84;41.59;101801.09;4993702;28;20058;-82
2021/03/31 08:13:38;;;;;;;11.57;7.03;;;;;;;21.89;41.51;101793.22;4993134;28;20023;-85
2021/03/31 08:16:26;;;;;;;23.60;7.45;;;;;;;21.61;42.31;101795.38;4989835;28;20041;-79
2021/03/31 08:18:54;;;;;;;18.00;6.35;;;;;;;21.92;41.82;101800.06;4993538;28;20045;-79
2021/03/31 08:21:25;;;;;;;18.35;7.65;;;;;;;22.18;41.30;101793.88;4993570;28;20497;-79
2021/03/31 08:23:52;;;;;;;16.95;6.93;;;;;;;22.34;41.23;101797.38;4991492;28;20026;-77
2021/03/31 08:26:35;;;;;;;10.93;5.95;;;;;;;22.76;40.70;101784.63;4993213;28;20030;-79
2021/03/31 08:29:04;;;;;;;9.75;5.03;;;;;;;22.84;40.52;101786.34;4993251;28;20101;-83
2021/03/31 08:31:39;;;;;;;9.00;5.25;;;;;;;22.59;41.07;101783.91;4993124;28;20034;-82
2021/03/31 08:34:06;;;;;;;10.40;4.72;;;;;;;22.38;41.60;101789.09;4991760;28;20396;-84
2021/03/31 08:36:32;;;;;;;9.23;4.88;;;;;;;22.52;41.13;101785.75;4991906;28;20018;-83
2021/03/31 08:38:59;;;;;;;7.47;4.53;;;;;;;22.77;40.61;101789.00;4993163;28;20370;-84
2021/03/31 08:41:28;;;;;;;12.15;6.03;;;;;;;22.70;40.86;101781.34;4991989;28;20053;-81
2021/03/31 08:44:29;;;;;;;18.55;6.57;;;;;;;23.00;40.07;101780.69;4982579;28;20029;-80
2021/03/31 08:47:07;;;;;;;7.45;5.18;;;;;;;22.85;40.48;101787.97;4984175;28;20077;-80
2021/03/31 08:49:33;;;;;;;14.57;5.65;;;;;;;22.64;40.88;101786.41;4984036;28;20026;-80
2021/03/31 08:52:05;;;;;;;7.68;4.60;;;;;;;22.81;40.84;101785.09;4983911;28;20025;-79
2021/03/31 08:54:33;;;;;;;6.63;4.82;;;;;;;22.72;40.54;101790.13;4980185;28;20525;-81
2021/03/31 08:57:05;;;;;;;7.13;4.43;;;;;;;22.89;40.35;101786.06;4991581;28;20026;-78
2021/03/31 08:59:36;;;;;;;11.50;5.25;;;;;;;22.96;40.47;101789.78;4986965;28;20022;-84
2021/03/31 09:02:02;;;;;;;5.75;4.00;;;;;;;23.23;39.92;101785.03;4980209;28;20027;-79
2021/03/31 09:04:28;;;;;;;16.42;7.50;;;;;;;23.52;39.31;101785.47;4992357;28;20030;-80
2021/03/31 09:06:55;;;;;;;15.45;6.38;;;;;;;23.81;38.92;101792.31;4991418;28;20026;-82
2021/03/31 09:09:22;;;;;;;21.30;5.72;;;;;;;23.55;39.31;101790.28;4992524;28;20034;-81
2021/03/31 09:11:48;;;;;;;10.02;4.70;;;;;;;23.33;39.59;101791.16;4992834;28;20030;-80
2021/03/31 09:14:20;;;;;;;10.55;6.03;;;;;;;23.51;38.97;101795.84;4991973;28;20032;-83
2021/03/31 09:16:57;;;;;;;11.50;7.55;;;;;;;23.36;39.39;101793.22;4990657;28;20501;-81
2021/03/31 09:19:25;;;;;;;14.35;7.47;;;;;;;23.08;40.07;101779.63;4991735;28;20034;-80
2021/03/31 09:21:51;;;;;;;12.38;7.30;;;;;;;23.34;39.89;101784.41;4992566;28;20088;-80
2021/03/31 09:24:20;;;;;;;15.50;7.20;;;;;;;23.35;39.34;101788.78;4991521;28;20026;-82
2021/03/31 09:27:02;;;;;;;26.73;7.73;;;;;;;23.02;39.93;101798.63;4984922;28;20030;-79
2021/03/31 09:29:28;;;;;;;10.48;5.80;;;;;;;23.29;39.50;101793.91;4983564;28;20026;-81
2021/03/31 09:31:54;;;;;;;8.43;4.68;;;;;;;23.58;39.01;101797.94;4982048;28;20374;-81
2021/03/31 09:34:20;;;;;;;7.97;4.82;;;;;;;23.72;38.84;101795.34;4983530;28;20030;-82
2021/03/31 09:37:04;;;;;;;10.88;5.30;;;;;;;23.66;39.05;101793.28;4987201;28;20018;-81
2021/03/31 09:39:47;;;;;;;15.30;6.78;;;;;;;23.79;39.14;101795.44;4985100;28;20393;-83
2021/03/31 09:42:24;;;;;;;10.68;9.07;;;;;;;24.14;38.44;101785.94;4985622;28;20031;-85
2021/03/31 09:44:52;;;;;;;106.38;89.28;;;;;;;24.23;38.33;101791.22;4980850;28;20503;-84
2021/03/31 09:47:20;;;;;;;43.80;38.28;;;;;;;24.44;38.06;101785.91;4992718;28;20029;-81
2021/03/31 09:49:49;;;;;;;80.47;70.38;;;;;;;24.32;38.06;101789.75;4996584;28;20030;-81
2021/03/31 09:52:15;;;;;;;17.40;10.52;;;;;;;24.47;37.92;101782.34;4994698;28;20030;-82
2021/03/31 09:54:46;;;;;;;17.00;12.93;;;;;;;24.65;37.67;101790.91;4995936;28;20132;-83
2021/03/31 09:57:15;;;;;;;10.90;7.05;;;;;;;24.82;37.27;101789.47;4994265;28;20945;-81
2021/03/31 09:59:42;;;;;;;9.18;3.78;;;;;;;24.63;37.61;101794.06;4993240;28;20037;-82
2021/03/31 10:02:12;;;;;;;7.03;2.83;;;;;;;24.81;36.92;101787.88;4992231;28;20030;-81
2021/03/31 10:04:40;;;;;;;;;;;;;;;24.99;36.69;101796.41;4993017;28;20034;-82
2021/03/31 10:07:07;;;;;;;5.38;3.97;;;;;;;24.52;37.30;101797.97;4995023;28;19917;-82
2021/03/31 10:09:50;;;;;;;10.63;8.30;;;;;;;24.73;37.15;101789.78;4981988;28;20026;-84
2021/03/31 10:12:33;;;;;;;5.25;2.60;;;;;;;25.20;36.19;101791.03;4991750;28;20026;-81
2021/03/31 10:15:02;;;;;;;10.70;3.15;;;;;;;25.41;35.96;101805.16;4997326;28;20445;-81
2021/03/31 10:17:30;;;;;;;18.47;4.73;;;;;;;25.34;35.52;101810.72;4996290;28;20401;-79
2021/03/31 10:20:20;;;;;;;9.57;4.38;;;;;;;25.49;35.15;101799.63;4996368;28;20395;-80
2021/03/31 10:22:52;;;;;;;8.35;4.50;;;;;;;25.50;35.43;101798.44;4995241;28;20033;-81
2021/03/31 10:25:26;;;;;;;5.35;3.95;;;;;;;25.46;35.63;101792.78;4994518;28;20068;-80
2021/03/31 10:27:52;;;;;;;6.95;3.92;;;;;;;25.52;35.82;101799.63;4994961;28;20025;-84
2021/03/31 10:30:34;;;;;;;9.05;4.20;;;;;;;25.42;35.67;101789.97;4995390;28;20022;-83
2021/03/31 10:33:00;;;;;;;5.07;3.38;;;;;;;25.40;35.86;101795.16;4991581;28;20019;-83
2021/03/31 10:38:22;;;;;;;7.95;3.30;;;;;;;25.37;35.48;101798.72;4988000;28;20034;-81
2021/03/31 10:48:58;;;;;;;14.93;3.20;;;;;;;25.80;35.03;101793.44;4992370;28;20041;-83
2021/03/31 10:54:12;;;;;;;4.07;2.50;;;;;;;25.76;34.77;101784.19;4995781;28;20388;-84
2021/03/31 10:56:47;;;;;;;8.15;3.33;;;;;;;25.97;34.37;101787.09;4992329;28;20097;-82
2021/03/31 10:59:13;;;;;;;31.75;8.32;;;;;;;26.19;34.75;101784.38;4988589;28;20049;-82
2021/03/31 11:01:38;;;;;;;6.20;4.00;;;;;;;26.40;34.34;101787.28;4992079;28;20058;-82
2021/03/31 11:04:04;;;;;;;16.65;6.95;;;;;;;26.44;34.11;101788.09;4994054;28;20081;-82
2021/03/31 11:06:31;;;;;;;7.85;5.45;;;;;;;26.46;34.10;101793.31;4992445;28;20499;-83
2021/03/31 11:08:56;;;;;;;6.07;3.97;;;;;;;26.53;33.79;101796.94;4989482;28;20080;-82
2021/03/31 11:11:22;;;;;;;26.45;8.18;;;;;;;26.41;34.31;101793.69;4993689;28;20435;-82
2021/03/31 11:13:48;;;;;;;15.02;5.47;;;;;;;26.53;34.00;101793.34;4994584;28;20060;-87
2021/03/31 11:16:15;;;;;;;10.60;6.70;;;;;;;26.60;33.73;101793.34;4991978;28;20059;-82
2021/03/31 11:26:44;;;;;;;8.80;4.93;;;;;;;26.47;33.75;101790.13;4989549;28;20068;-83
2021/03/31 11:29:10;;;;;;;10.95;5.43;;;;;;;26.31;34.04;101783.25;4982125;28;20056;-80
2021/03/31 11:31:35;;;;;;;14.82;5.88;;;;;;;26.14;34.00;101782.75;4983350;28;20034;-79
2021/03/31 11:34:01;;;;;;;41.13;11.45;;;;;;;26.26;34.12;101784.41;4982906;28;20042;-79
2021/03/31 11:36:27;;;;;;;12.18;5.55;;;;;;;26.17;33.94;101782.00;4983657;28;20092;-79
2021/03/31 11:38:53;;;;;;;11.70;6.10;;;;;;;26.23;34.10;101786.03;4983735;28;20606;-78
2021/03/31 11:41:19;;;;;;;9.73;5.00;;;;;;;26.46;33.79;101784.91;4987546;28;20031;-78
2021/03/31 11:43:44;;;;;;;11.70;5.45;;;;;;;26.16;34.02;101782.41;4981827;28;20109;-78
2021/03/31 11:46:10;;;;;;;8.48;4.85;;;;;;;26.34;33.83;101788.84;4983408;28;20093;-77
2021/03/31 11:48:36;;;;;;;7.93;4.38;;;;;;;26.44;33.55;101785.28;4983631;28;20033;-77